Terminal Aerodrome Forecast
Issued by NWS

Home | Current Version | Previous Version | Text Only | Print | Product List | Glossary On
Versions: 1 2 3 4 5 6 7 8 9 10 11 12 13 14 15 16 17 18 19 20 21 22 23 24 25 26 27 28 29 30 31 32
000
FTUS44 KOUN 020333 AAA
TAFPNC
TAF AMD
KPNC 020333Z 0204/0224 02005KT 6SM BR SCT025
     FM020600 04005KT 6SM BR FEW025
     FM021600 13005KT P6SM SCT025 BKN200=

USA.gov is the U.S. government's official web portal to all federal, state and local government web resources and services.